Terminal Aerodrome Forecast
Issued by NWS

Home | Current Version | Previous Version | Text Only | Print | Product List | Glossary On
Versions: 1 2 3 4 5 6 7 8 9 10 11 12 13 14 15 16 17 18 19 20 21 22 23 24 25 26 27
000
FTUS43 KGRR 010838 AAA
TAFBTL
TAF AMD
KBTL 010838Z 0109/0206 06010KT 4SM +RA BR OVC003
     FM011100 05008KT 5SM -RA BR OVC004
     FM011500 12006KT 5SM -RA BR VCTS OVC007CB
     FM012100 14005KT P6SM VCTS BKN015CB
     FM020000 07008KT 5SM -RA BR OVC009=

USA.gov is the U.S. government's official web portal to all federal, state and local government web resources and services.